Time;durP1;ratioP1;P1;durP2;ratioP2;P2;SDS_P1;SDS_P2;PMS_P1;PMS_P2;Temp;Humidity;BMP_temperature;BMP_pressure;BME280_temperature;BME280_humidity;BME280_pressure;Samples;Min_cycle;Max_cycle;Signal;HPM_P1;HPM_P2
2022/04/18 00:00:08;;;;;;;4.63;2.43;;;;;;;5.69;49.23;95879.16;5016856;28;20259;-84
2022/04/18 00:02:34;;;;;;;4.57;2.40;;;;;;;5.64;49.00;95870.94;5014937;28;20551;-82
2022/04/18 00:05:00;;;;;;;2.13;1.90;;;;;;;5.60;49.14;95870.34;5015384;28;20225;-82
2022/04/18 00:07:25;;;;;;;4.00;2.40;;;;;;;5.56;49.86;95868.91;5015371;28;20195;-81
2022/04/18 00:09:52;;;;;;;4.00;2.40;;;;;;;5.45;49.61;95870.59;5016797;28;20179;-83
2022/04/18 00:12:17;;;;;;;3.93;2.13;;;;;;;5.42;49.78;95865.66;5014853;28;20198;-82
2022/04/18 00:14:44;;;;;;;2.87;2.37;;;;;;;5.37;50.07;95863.41;5011608;28;20191;-82
2022/04/18 00:17:09;;;;;;;2.57;2.13;;;;;;;5.30;50.53;95857.88;4998619;28;20217;-82
2022/04/18 00:19:37;;;;;;;3.63;2.43;;;;;;;5.28;50.84;95856.31;5026312;28;20208;-82
2022/04/18 00:22:03;;;;;;;3.40;2.50;;;;;;;5.37;50.82;95853.09;4995176;28;20267;-82
2022/04/18 00:24:29;;;;;;;2.67;2.23;;;;;;;5.27;50.47;95854.69;4997233;28;20176;-82
2022/04/18 00:26:54;;;;;;;3.10;2.30;;;;;;;5.25;50.76;95859.13;4996400;28;20198;-82
2022/04/18 00:29:19;;;;;;;2.73;2.47;;;;;;;5.19;50.96;95847.50;4996361;28;20172;-82
2022/04/18 00:31:45;;;;;;;3.20;2.90;;;;;;;5.15;50.35;95853.81;4999462;28;20210;-82
2022/04/18 00:34:10;;;;;;;2.50;2.30;;;;;;;5.16;50.83;95855.44;5010370;28;20183;-82
2022/04/18 00:36:35;;;;;;;2.80;2.60;;;;;;;5.18;51.31;95851.00;5012403;28;20670;-82
2022/04/18 00:39:01;;;;;;;3.30;2.60;;;;;;;5.15;51.08;95848.66;5028939;28;20248;-82
2022/04/18 00:41:26;;;;;;;4.10;2.63;;;;;;;5.11;51.09;95842.88;5013966;28;20281;-82
2022/04/18 00:43:52;;;;;;;4.40;2.60;;;;;;;5.15;50.88;95848.66;4997510;28;20179;-82
2022/04/18 00:46:19;;;;;;;3.43;2.53;;;;;;;5.11;51.30;95842.06;5013779;28;20219;-81
2022/04/18 00:48:44;;;;;;;4.83;2.80;;;;;;;5.09;51.12;95841.34;4997401;28;20201;-83
2022/04/18 00:51:11;;;;;;;3.90;2.00;;;;;;;5.14;51.14;95833.31;5013139;28;20185;-82
2022/04/18 00:53:38;;;;;;;3.50;2.23;;;;;;;5.04;51.49;95830.56;5013481;28;20606;-82
2022/04/18 00:56:05;;;;;;;3.67;2.83;;;;;;;5.00;51.52;95829.94;4996982;28;20213;-82
2022/04/18 00:58:30;;;;;;;4.07;2.30;;;;;;;4.96;51.91;95827.69;4996951;28;20742;-82
2022/04/18 01:00:56;;;;;;;3.07;2.57;;;;;;;4.99;51.68;95824.91;5013320;28;20285;-82
2022/04/18 01:03:21;;;;;;;2.93;2.60;;;;;;;4.95;51.91;95826.88;4996068;28;20275;-82
2022/04/18 01:05:47;;;;;;;3.20;2.60;;;;;;;5.00;51.62;95824.78;4996663;28;20602;-81
2022/04/18 01:08:13;;;;;;;2.77;2.43;;;;;;;5.00;51.97;95816.25;5007734;28;20258;-81
2022/04/18 01:10:39;;;;;;;3.00;2.70;;;;;;;4.96;52.03;95817.41;5009740;28;20251;-81
2022/04/18 01:13:04;;;;;;;4.67;2.73;;;;;;;4.93;52.31;95812.44;5009366;28;20180;-81
2022/04/18 01:15:30;;;;;;;3.70;2.90;;;;;;;4.87;52.42;95812.91;5009568;28;20188;-83
2022/04/18 01:17:55;;;;;;;4.13;2.30;;;;;;;4.83;52.19;95805.38;5010143;28;20222;-83
2022/04/18 01:20:21;;;;;;;4.97;2.63;;;;;;;4.81;52.58;95796.13;4994259;28;20219;-83
2022/04/18 01:22:51;;;;;;;5.50;2.50;;;;;;;4.78;52.40;95798.91;4993047;28;20498;-83
2022/04/18 01:30:53;;;;;;;3.70;2.60;;;;;;;4.67;53.28;95794.50;5027234;28;20286;-81
2022/04/18 01:33:18;;;;;;;4.13;2.47;;;;;;;4.57;53.13;95793.47;5045377;28;20214;-84
2022/04/18 01:35:44;;;;;;;3.90;2.73;;;;;;;4.59;53.21;95793.38;5029296;28;20266;-83
2022/04/18 01:38:09;;;;;;;3.80;2.60;;;;;;;4.55;53.46;95791.03;5028827;28;20222;-83
2022/04/18 01:40:34;;;;;;;4.20;2.40;;;;;;;4.52;53.73;95793.00;5029499;28;20214;-83
2022/04/18 01:42:59;;;;;;;3.23;2.80;;;;;;;4.45;53.60;95791.75;5028967;28;20182;-82
2022/04/18 01:45:25;;;;;;;3.00;2.70;;;;;;;4.39;53.94;95798.13;5029628;28;20256;-82
2022/04/18 01:47:50;;;;;;;3.93;2.47;;;;;;;4.33;54.54;95793.41;5012600;28;20306;-83
2022/04/18 01:50:15;;;;;;;3.20;2.90;;;;;;;4.27;54.47;95793.81;5028884;28;20652;-83
2022/04/18 01:52:40;;;;;;;2.97;2.73;;;;;;;4.22;54.75;95796.69;5028499;28;20187;-83
2022/04/18 01:55:06;;;;;;;4.63;3.13;;;;;;;4.32;54.57;95789.19;5028709;28;20194;-83
2022/04/18 01:57:32;;;;;;;3.83;2.47;;;;;;;4.39;54.43;95792.16;5028411;28;20203;-83
2022/04/18 01:59:57;;;;;;;3.87;2.90;;;;;;;4.45;54.74;95787.44;5028614;28;20561;-83
2022/04/18 02:02:22;;;;;;;6.27;2.90;;;;;;;4.41;54.58;95782.59;5027906;28;20237;-83
2022/04/18 02:04:48;;;;;;;3.97;2.80;;;;;;;4.32;54.76;95784.03;5028363;28;20265;-83
2022/04/18 02:07:14;;;;;;;3.07;2.50;;;;;;;4.24;55.26;95778.59;5028772;28;20209;-83
2022/04/18 02:09:39;;;;;;;4.97;2.63;;;;;;;4.29;55.07;95778.28;5044937;28;20247;-83
2022/04/18 02:12:06;;;;;;;3.50;2.90;;;;;;;4.27;54.73;95770.69;5027708;28;20207;-83
2022/04/18 02:14:31;;;;;;;4.07;2.60;;;;;;;4.26;55.05;95777.56;5027499;28;20183;-83
2022/04/18 02:16:56;;;;;;;2.60;2.33;;;;;;;4.21;55.06;95771.09;5027851;28;20722;-83
2022/04/18 02:19:22;;;;;;;4.20;3.80;;;;;;;4.16;55.20;95774.00;5028103;28;20175;-83
2022/04/18 02:21:47;;;;;;;3.67;3.27;;;;;;;4.20;54.97;95767.69;5027909;28;20181;-82
2022/04/18 02:24:14;;;;;;;3.93;3.17;;;;;;;4.13;55.40;95768.22;5028214;28;20642;-82
2022/04/18 02:26:39;;;;;;;3.77;3.10;;;;;;;4.17;55.29;95772.25;5012121;28;20203;-82
2022/04/18 02:29:05;;;;;;;5.67;3.20;;;;;;;4.13;55.63;95769.03;5044740;28;20671;-82
2022/04/18 02:31:30;;;;;;;4.23;2.87;;;;;;;4.10;55.63;95771.00;5027476;28;20295;-83
2022/04/18 02:33:56;;;;;;;3.77;2.57;;;;;;;4.10;55.99;95761.53;5028148;28;20178;-82
2022/04/18 02:36:21;;;;;;;3.37;2.93;;;;;;;4.07;55.56;95764.31;5027987;28;20206;-83
2022/04/18 02:38:46;;;;;;;4.53;3.30;;;;;;;4.02;56.10;95761.22;5026910;28;20195;-83
2022/04/18 02:41:12;;;;;;;6.07;3.37;;;;;;;3.97;56.41;95758.94;5043704;28;20768;-83
2022/04/18 02:43:37;;;;;;;3.50;3.20;;;;;;;3.93;56.49;95754.94;5027501;28;20183;-83
2022/04/18 02:46:02;;;;;;;4.53;3.27;;;;;;;3.92;56.54;95758.44;5027644;28;20183;-83
2022/04/18 02:48:31;;;;;;;3.67;3.30;;;;;;;3.89;56.38;95757.84;5027894;28;20279;-83
2022/04/18 02:50:56;;;;;;;4.03;3.20;;;;;;;3.88;56.75;95753.59;5027664;28;20167;-83
2022/04/18 02:53:22;;;;;;;3.63;3.20;;;;;;;3.87;56.64;95763.06;5043679;28;20676;-83
2022/04/18 02:55:47;;;;;;;5.00;3.00;;;;;;;3.88;56.67;95749.28;5027765;28;20183;-82
2022/04/18 02:58:12;;;;;;;4.73;3.20;;;;;;;3.90;56.67;95756.91;5043934;28;20200;-82
2022/04/18 03:00:38;;;;;;;3.50;3.17;;;;;;;3.98;56.05;95752.91;5027532;28;20698;-82
2022/04/18 03:03:03;;;;;;;4.10;3.10;;;;;;;3.97;55.79;95747.84;5027191;28;20657;-83
2022/04/18 03:05:28;;;;;;;3.40;3.10;;;;;;;3.94;55.86;95746.31;5022117;28;20215;-83
2022/04/18 03:07:54;;;;;;;3.67;2.97;;;;;;;3.94;56.01;95737.78;5038888;28;20204;-83
2022/04/18 03:11:02;;;;;;;4.90;3.10;;;;;;;3.96;55.98;95741.06;5022579;28;20178;-83
2022/04/18 03:13:05;;;;;;;3.50;3.00;;;;;;;3.94;55.65;95735.22;5033867;28;20685;-83
2022/04/18 03:15:30;;;;;;;3.97;3.53;;;;;;;3.96;55.65;95743.63;5020882;28;20183;-83
2022/04/18 03:17:56;;;;;;;5.83;3.20;;;;;;;4.00;55.59;95732.25;5035868;28;20198;-83
2022/04/18 03:20:24;;;;;;;4.20;3.10;;;;;;;3.99;55.92;95728.03;5033120;28;20202;-84
2022/04/18 03:22:49;;;;;;;4.33;3.20;;;;;;;3.91;56.36;95725.97;5029474;28;20175;-84
2022/04/18 03:25:14;;;;;;;5.10;2.97;;;;;;;4.01;55.46;95728.75;5013138;28;20181;-84
2022/04/18 03:27:40;;;;;;;4.90;3.40;;;;;;;4.08;55.98;95726.59;5029766;28;20199;-83
2022/04/18 03:30:05;;;;;;;3.83;3.23;;;;;;;4.05;55.82;95722.47;5029384;28;20179;-82
2022/04/18 03:32:31;;;;;;;4.53;3.10;;;;;;;4.05;55.64;95717.31;5028629;28;20195;-83
2022/04/18 03:34:56;;;;;;;3.80;3.10;;;;;;;4.07;55.80;95709.53;5014440;28;20282;-83
2022/04/18 03:40:06;;;;;;;4.17;3.00;;;;;;;4.02;56.20;95717.53;5026653;28;20639;-83
2022/04/18 03:42:31;;;;;;;6.77;3.17;;;;;;;4.01;56.16;95718.47;5028579;28;20214;-83
2022/04/18 03:44:59;;;;;;;5.90;3.40;;;;;;;4.00;56.17;95714.25;5012399;28;20233;-83
2022/04/18 03:47:25;;;;;;;4.83;2.80;;;;;;;3.97;56.30;95709.31;5029232;28;20706;-83
2022/04/18 03:49:50;;;;;;;3.30;3.00;;;;;;;4.06;56.49;95715.56;5045460;28;20182;-83
2022/04/18 03:52:16;;;;;;;5.80;3.70;;;;;;;3.94;56.01;95704.38;4995585;28;20186;-83
2022/04/18 03:54:43;;;;;;;3.60;2.90;;;;;;;3.92;56.41;95706.25;4995975;28;20178;-83
2022/04/18 03:57:08;;;;;;;4.93;3.53;;;;;;;3.99;56.56;95712.63;5028366;28;20203;-83
2022/04/18 03:59:33;;;;;;;3.93;3.20;;;;;;;3.94;56.62;95710.34;5045020;28;20194;-83
2022/04/18 04:01:59;;;;;;;5.27;3.10;;;;;;;3.98;56.50;95706.66;5027961;28;20174;-83
2022/04/18 04:04:25;;;;;;;3.43;3.13;;;;;;;3.90;56.59;95702.97;4995748;28;20182;-83
2022/04/18 04:06:50;;;;;;;4.50;2.90;;;;;;;3.80;57.14;95701.91;5027894;28;20190;-83
2022/04/18 04:09:15;;;;;;;4.40;3.20;;;;;;;3.89;56.78;95701.31;5011458;28;20231;-83
2022/04/18 04:11:40;;;;;;;5.13;3.40;;;;;;;3.88;57.07;95705.59;5027716;28;20270;-83
2022/04/18 04:14:06;;;;;;;3.57;2.93;;;;;;;3.93;56.68;95708.72;5027695;28;20186;-83
2022/04/18 04:16:31;;;;;;;6.13;3.60;;;;;;;3.92;56.88;95707.06;5028060;28;20194;-83
2022/04/18 04:18:56;;;;;;;5.10;3.37;;;;;;;3.92;56.93;95707.06;5012759;28;20655;-83
2022/04/18 04:21:22;;;;;;;3.50;3.20;;;;;;;3.90;56.85;95708.91;5027595;28;20208;-83
2022/04/18 04:23:47;;;;;;;5.40;3.50;;;;;;;3.86;57.22;95709.22;5043807;28;20175;-82
2022/04/18 04:26:12;;;;;;;5.57;3.23;;;;;;;3.79;57.64;95700.25;5052596;28;20178;-82
2022/04/18 04:28:39;;;;;;;4.70;3.50;;;;;;;3.80;57.38;95704.47;5034892;28;20267;-83
2022/04/18 04:31:04;;;;;;;5.40;3.60;;;;;;;3.79;57.60;95706.22;5050110;28;20169;-83
2022/04/18 04:33:32;;;;;;;5.30;3.27;;;;;;;3.70;58.02;95699.94;5034379;28;20190;-83
2022/04/18 04:35:58;;;;;;;4.23;3.00;;;;;;;3.77;57.79;95704.69;5028796;28;20194;-83
2022/04/18 04:38:27;;;;;;;4.90;2.93;;;;;;;3.91;58.13;95700.28;5013357;28;20288;-83
2022/04/18 04:40:53;;;;;;;5.17;3.63;;;;;;;3.88;57.79;95707.34;5031379;28;20209;-83
2022/04/18 04:43:25;;;;;;;4.77;3.50;;;;;;;3.94;57.70;95694.09;5015704;28;20266;-83
2022/04/18 04:45:51;;;;;;;4.40;3.80;;;;;;;3.87;57.78;95690.31;5032931;28;20172;-83
2022/04/18 04:48:16;;;;;;;8.00;3.23;;;;;;;3.87;58.41;95698.00;5030243;28;20356;-82
2022/04/18 04:50:41;;;;;;;6.40;3.37;;;;;;;3.90;57.95;95692.69;5046484;28;20594;-82
2022/04/18 04:53:07;;;;;;;7.50;4.23;;;;;;;4.11;57.02;95700.69;5045881;28;20175;-82
2022/04/18 04:55:32;;;;;;;4.47;3.40;;;;;;;5.18;54.90;95695.72;5029647;28;20175;-82
2022/04/18 04:57:57;;;;;;;4.97;3.50;;;;;;;7.13;50.54;95696.25;5029922;28;20253;-82
2022/04/18 05:00:22;;;;;;;6.37;3.40;;;;;;;8.47;45.88;95697.25;5030945;28;20219;-83
2022/04/18 05:02:48;;;;;;;5.37;3.10;;;;;;;9.35;43.33;95693.84;5029576;28;20217;-83
2022/04/18 05:05:13;;;;;;;3.77;3.10;;;;;;;8.95;42.55;95692.22;5030491;28;20199;-83
2022/04/18 05:07:39;;;;;;;3.00;2.70;;;;;;;8.41;44.15;95697.78;5030138;28;20210;-83
2022/04/18 05:10:04;;;;;;;3.37;3.07;;;;;;;7.59;46.41;95690.75;5030121;28;20182;-82
2022/04/18 05:12:31;;;;;;;3.73;3.27;;;;;;;7.02;47.60;95691.16;5029046;28;20418;-82
2022/04/18 05:15:03;;;;;;;4.77;3.33;;;;;;;6.73;48.65;95688.28;5029929;28;20221;-83
2022/04/18 05:17:29;;;;;;;4.13;3.60;;;;;;;6.43;49.80;95694.88;5030671;28;20194;-82
2022/04/18 05:19:54;;;;;;;6.30;3.53;;;;;;;6.11;50.53;95693.97;5047950;28;20569;-83
2022/04/18 05:22:19;;;;;;;5.10;3.10;;;;;;;5.84;51.65;95702.81;5047288;28;20187;-83
2022/04/18 05:24:45;;;;;;;3.23;2.93;;;;;;;5.72;52.00;95714.03;5016317;28;20213;-82
2022/04/18 05:27:15;;;;;;;5.73;3.50;;;;;;;5.52;53.21;95702.63;5012364;28;20203;-82
2022/04/18 05:29:40;;;;;;;4.63;3.07;;;;;;;5.56;53.16;95701.44;5012463;28;20190;-82
2022/04/18 05:32:06;;;;;;;3.83;3.43;;;;;;;5.59;52.83;95700.44;5012205;28;20183;-82
2022/04/18 05:34:31;;;;;;;4.70;3.10;;;;;;;5.59;53.30;95698.66;5012817;28;20639;-81
2022/04/18 05:36:56;;;;;;;6.57;3.30;;;;;;;5.56;53.36;95703.22;5013601;28;20203;-83
2022/04/18 05:39:22;;;;;;;3.37;2.80;;;;;;;5.50;53.79;95701.91;5011082;28;20215;-82
2022/04/18 05:41:47;;;;;;;5.20;3.50;;;;;;;5.50;53.29;95703.69;5011770;28;20510;-81
2022/04/18 05:44:12;;;;;;;4.20;3.40;;;;;;;5.54;53.14;95712.81;5012404;28;20582;-82
2022/04/18 05:46:37;;;;;;;4.07;3.67;;;;;;;5.63;52.81;95707.78;5013343;28;20182;-81
2022/04/18 05:49:03;;;;;;;4.53;3.30;;;;;;;5.70;53.51;95710.75;5027834;28;20180;-82
2022/04/18 05:51:28;;;;;;;4.80;3.40;;;;;;;5.71;53.33;95702.06;5011875;28;20265;-81
2022/04/18 05:53:53;;;;;;;5.43;3.00;;;;;;;5.78;52.71;95702.44;5012548;28;20639;-81
2022/04/18 05:56:18;;;;;;;3.53;2.97;;;;;;;5.74;53.36;95706.16;5012249;28;20230;-82
2022/04/18 05:58:44;;;;;;;3.83;2.90;;;;;;;5.81;53.69;95710.75;5012072;28;20206;-82
2022/04/18 06:01:09;;;;;;;4.00;3.20;;;;;;;5.79;53.64;95704.91;5011705;28;20216;-82
2022/04/18 06:03:34;;;;;;;6.03;3.63;;;;;;;5.87;53.74;95697.44;5012241;28;20739;-83
2022/04/18 06:06:00;;;;;;;6.07;3.23;;;;;;;5.99;53.66;95697.47;4995190;28;20552;-82
2022/04/18 06:08:25;;;;;;;4.30;3.33;;;;;;;6.09;53.25;95691.47;4990579;28;20301;-81
2022/04/18 06:10:50;;;;;;;3.70;3.30;;;;;;;6.23;53.76;95700.75;5000525;28;20193;-82
2022/04/18 06:13:18;;;;;;;4.30;3.20;;;;;;;6.30;53.17;95701.94;4996931;28;20225;-82
2022/04/18 06:15:44;;;;;;;4.10;3.50;;;;;;;6.39;53.08;95692.69;5008260;28;20184;-82
2022/04/18 07:44:11;;;;;;;5.57;3.97;;;;;;;9.91;45.87;95700.94;4976514;28;20211;-81
2022/04/18 07:46:37;;;;;;;8.83;5.30;;;;;;;9.69;45.61;95701.22;4949614;28;20189;-82
2022/04/18 07:49:02;;;;;;;6.33;3.37;;;;;;;9.94;45.77;95708.41;4982073;28;20287;-79
2022/04/18 07:51:35;;;;;;;5.53;3.70;;;;;;;9.86;45.66;95708.28;4980875;28;20197;-80
2022/04/18 07:54:07;;;;;;;4.77;2.93;;;;;;;9.99;44.58;95708.84;4973474;28;20196;-80
2022/04/18 07:56:33;;;;;;;3.63;3.00;;;;;;;9.91;45.58;95701.75;4957305;28;20287;-82
2022/04/18 07:58:59;;;;;;;5.03;3.13;;;;;;;10.00;45.00;95704.47;4976850;28;20248;-82
2022/04/18 08:01:24;;;;;;;3.13;2.83;;;;;;;10.04;44.35;95706.63;4973181;28;20208;-81
2022/04/18 08:03:50;;;;;;;4.87;3.17;;;;;;;10.19;42.76;95709.59;4961600;28;20188;-83
2022/04/18 08:06:16;;;;;;;3.77;3.10;;;;;;;10.28;43.53;95711.38;4957761;28;20188;-82
2022/04/18 08:08:41;;;;;;;4.37;2.80;;;;;;;10.51;43.84;95709.22;4987083;28;20209;-83
2022/04/18 08:11:11;;;;;;;5.00;2.63;;;;;;;10.45;42.78;95717.59;4991495;28;20183;-82
2022/04/18 08:13:41;;;;;;;4.47;3.23;;;;;;;10.67;42.47;95716.41;4994585;28;20176;-83
2022/04/18 08:16:07;;;;;;;3.30;3.00;;;;;;;10.69;42.83;95717.06;4994322;28;20191;-83
2022/04/18 08:18:36;;;;;;;4.77;3.10;;;;;;;10.57;42.90;95716.44;4995533;28;20203;-82
2022/04/18 08:21:02;;;;;;;3.70;2.80;;;;;;;10.69;42.96;95717.91;4995799;28;20558;-83
2022/04/18 08:23:27;;;;;;;6.23;3.33;;;;;;;10.81;42.02;95725.50;4996076;28;20187;-82
2022/04/18 08:25:52;;;;;;;3.73;3.13;;;;;;;10.94;42.12;95720.78;4995859;28;20179;-83
2022/04/18 08:28:17;;;;;;;3.57;2.60;;;;;;;11.18;41.52;95721.03;4996153;28;20211;-83
2022/04/18 08:30:43;;;;;;;6.73;2.87;;;;;;;11.05;39.34;95721.41;5013854;28;20184;-82
2022/04/18 08:33:08;;;;;;;4.03;2.83;;;;;;;11.20;40.08;95720.88;4997133;28;20732;-82
2022/04/18 08:35:33;;;;;;;5.53;3.40;;;;;;;10.98;39.46;95725.56;4996775;28;20230;-83
2022/04/18 08:37:59;;;;;;;3.53;2.97;;;;;;;11.02;40.50;95726.06;4996308;28;20192;-82
2022/04/18 08:40:25;;;;;;;4.33;3.37;;;;;;;11.09;40.26;95728.91;4996639;28;20379;-83
2022/04/18 08:42:54;;;;;;;4.40;3.03;;;;;;;11.10;40.12;95727.94;4995819;28;20195;-83
2022/04/18 08:45:22;;;;;;;4.10;3.33;;;;;;;11.33;39.64;95727.38;4995758;28;20327;-83
2022/04/18 08:53:19;;;;;;;3.73;3.13;;;;;;;11.34;41.37;95723.81;4995488;28;20254;-83
2022/04/18 08:55:45;;;;;;;4.73;3.03;;;;;;;11.61;41.02;95725.50;4995155;28;20664;-83
2022/04/18 08:58:12;;;;;;;4.07;2.97;;;;;;;11.76;40.65;95723.22;4995900;28;20261;-83
2022/04/18 09:00:38;;;;;;;4.37;3.00;;;;;;;11.93;40.03;95729.41;4995422;28;20199;-82
2022/04/18 09:03:03;;;;;;;5.03;3.40;;;;;;;11.54;39.47;95732.28;4995334;28;20184;-83
2022/04/18 09:05:35;;;;;;;5.47;3.40;;;;;;;11.66;39.16;95722.47;5006875;28;20180;-83
2022/04/18 09:08:02;;;;;;;4.43;3.53;;;;;;;11.85;38.55;95721.53;5018125;28;20215;-83
2022/04/18 09:10:28;;;;;;;6.77;4.43;;;;;;;11.78;39.49;95715.25;5018556;28;20160;-82
2022/04/18 09:12:54;;;;;;;7.03;5.00;;;;;;;11.67;39.16;95694.69;5018531;28;20251;-83
2022/04/18 09:15:35;;;;;;;5.17;3.10;;;;;;;11.95;40.02;95706.63;5009943;28;20180;-82
2022/04/18 09:18:10;;;;;;;8.03;3.80;;;;;;;11.95;37.22;95708.41;5012970;28;20232;-82
2022/04/18 09:20:47;;;;;;;4.63;3.07;;;;;;;11.73;37.65;95709.66;5011909;28;20199;-82
2022/04/18 09:23:18;;;;;;;3.90;3.00;;;;;;;11.76;37.01;95706.78;4995652;28;20226;-82
2022/04/18 09:25:44;;;;;;;6.40;3.80;;;;;;;11.59;35.19;95716.25;4994987;28;20196;-81
2022/04/18 09:28:11;;;;;;;6.67;3.77;;;;;;;11.60;37.19;95703.06;4994995;28;20659;-82
2022/04/18 09:30:37;;;;;;;5.47;3.67;;;;;;;11.56;37.72;95703.50;4994864;28;20176;-82
2022/04/18 09:33:03;;;;;;;4.33;3.23;;;;;;;11.60;37.34;95694.47;4994389;28;20225;-82
2022/04/18 09:35:29;;;;;;;3.93;2.97;;;;;;;11.45;37.78;95694.16;4993988;28;20211;-82
2022/04/18 09:38:00;;;;;;;6.47;3.70;;;;;;;11.72;37.35;95700.22;4995172;28;20210;-83
2022/04/18 09:40:25;;;;;;;8.40;3.80;;;;;;;11.81;38.40;95696.75;4996224;28;20242;-83
2022/04/18 09:42:53;;;;;;;4.83;3.30;;;;;;;12.09;38.79;95700.84;4995403;28;20259;-83
2022/04/18 09:45:18;;;;;;;5.90;3.43;;;;;;;12.04;38.67;95700.50;4995455;28;20184;-83
2022/04/18 09:47:43;;;;;;;3.60;2.87;;;;;;;12.43;38.61;95695.69;4995201;28;20576;-83
2022/04/18 09:50:58;;;;;;;4.20;2.97;;;;;;;12.82;38.00;95699.59;4993932;28;20172;-83
2022/04/18 09:53:03;;;;;;;4.53;3.13;;;;;;;12.72;38.44;95695.34;4993368;28;20234;-83
2022/04/18 09:55:30;;;;;;;3.83;3.23;;;;;;;12.88;37.56;95697.16;4994266;28;20184;-83
2022/04/18 09:58:00;;;;;;;10.73;3.50;;;;;;;12.97;36.24;95703.22;4994748;28;20203;-83
2022/04/18 10:00:26;;;;;;;4.50;3.60;;;;;;;12.84;35.80;95703.69;4995127;28;20315;-83
2022/04/18 10:02:51;;;;;;;3.73;3.03;;;;;;;12.70;35.98;95701.66;4995605;28;20192;-83
2022/04/18 10:05:16;;;;;;;5.77;4.00;;;;;;;12.24;36.67;95697.69;4997983;28;20180;-83
2022/04/18 10:07:42;;;;;;;3.90;3.50;;;;;;;12.35;35.42;95700.84;4995177;28;20219;-83
2022/04/18 10:10:08;;;;;;;4.43;3.10;;;;;;;12.69;37.27;95692.22;5011245;28;20291;-83
2022/04/18 10:12:33;;;;;;;4.90;3.40;;;;;;;12.67;37.09;95697.59;4995179;28;20186;-83
2022/04/18 10:14:58;;;;;;;5.40;3.40;;;;;;;12.89;37.31;95696.19;4993921;28;20525;-83
2022/04/18 10:17:27;;;;;;;5.50;3.60;;;;;;;12.38;36.90;95700.56;4993641;28;20211;-83
2022/04/18 10:20:16;;;;;;;4.63;3.70;;;;;;;12.19;36.35;95696.38;4993655;28;20172;-83
2022/04/18 10:23:15;;;;;;;3.73;3.40;;;;;;;12.59;36.97;95697.56;5009915;28;20187;-83
2022/04/18 10:26:13;;;;;;;4.73;3.20;;;;;;;12.45;36.16;95692.91;4995039;28;20704;-83
2022/04/18 10:28:41;;;;;;;6.03;3.80;;;;;;;12.63;38.22;95685.03;4993713;28;20238;-82
2022/04/18 10:31:18;;;;;;;5.50;3.83;;;;;;;12.42;37.10;95685.41;4993029;28;20176;-82
2022/04/18 10:33:44;;;;;;;3.67;3.30;;;;;;;12.23;38.26;95683.03;4993381;28;20279;-83
2022/04/18 10:36:10;;;;;;;5.07;4.20;;;;;;;12.21;39.56;95685.00;4992598;28;20203;-82
2022/04/18 10:38:41;;;;;;;7.50;5.27;;;;;;;12.39;37.05;95677.94;4993487;28;20286;-82
2022/04/18 10:41:35;;;;;;;5.30;4.77;;;;;;;12.32;36.92;95687.31;4993382;28;20291;-82
2022/04/18 10:44:10;;;;;;;4.30;3.60;;;;;;;12.66;38.64;95682.13;4994856;28;20191;-82
2022/04/18 10:46:39;;;;;;;6.67;4.77;;;;;;;12.90;37.31;95668.38;5010537;28;20175;-82
2022/04/18 10:49:16;;;;;;;5.97;4.90;;;;;;;12.68;36.58;95670.56;5010395;28;20231;-81
2022/04/18 10:51:43;;;;;;;5.80;3.60;;;;;;;12.91;36.85;95676.03;4992817;28;20180;-82
2022/04/18 10:54:15;;;;;;;7.33;5.53;;;;;;;12.85;37.57;95675.84;4994083;28;20180;-82
2022/04/18 10:57:01;;;;;;;4.63;4.03;;;;;;;12.93;35.67;95666.25;4994387;28;20183;-82
2022/04/18 10:59:28;;;;;;;5.53;3.57;;;;;;;13.16;35.67;95666.44;4994259;28;20183;-82
2022/04/18 11:01:56;;;;;;;4.63;2.90;;;;;;;13.44;36.84;95664.41;4991264;28;20191;-82
2022/04/18 11:04:26;;;;;;;3.70;3.30;;;;;;;13.39;34.84;95664.06;4991845;28;20180;-82
2022/04/18 11:06:58;;;;;;;4.70;3.77;;;;;;;13.31;33.71;95664.06;4994076;28;20578;-82
2022/04/18 11:09:24;;;;;;;4.23;3.53;;;;;;;13.51;36.41;95657.53;4993943;28;20224;-82
2022/04/18 11:12:01;;;;;;;5.03;3.93;;;;;;;13.35;34.95;95654.94;4992613;28;20176;-83
2022/04/18 11:14:44;;;;;;;8.10;3.53;;;;;;;13.59;35.18;95656.72;4990810;28;20195;-81
2022/04/18 11:17:13;;;;;;;5.70;4.47;;;;;;;13.25;35.63;95649.88;4991744;28;20809;-82
2022/04/18 11:19:42;;;;;;;9.87;5.63;;;;;;;13.17;34.13;95638.59;4991619;28;20175;-82
2022/04/18 11:22:21;;;;;;;4.87;3.83;;;;;;;13.59;37.35;95647.09;4990687;28;20204;-82
2022/04/18 11:24:51;;;;;;;4.03;3.03;;;;;;;13.53;33.71;95644.34;4991264;28;20741;-82
2022/04/18 11:27:17;;;;;;;5.67;3.97;;;;;;;13.72;34.38;95636.19;5007560;28;20250;-82
2022/04/18 11:29:45;;;;;;;5.43;4.10;;;;;;;13.64;33.61;95633.59;5008388;28;20195;-83
2022/04/18 11:32:15;;;;;;;4.10;3.07;;;;;;;13.80;34.97;95628.34;4991235;28;20179;-81
2022/04/18 11:34:43;;;;;;;3.77;3.43;;;;;;;14.11;32.63;95625.00;4994224;28;20180;-83
2022/04/18 11:37:10;;;;;;;5.63;3.80;;;;;;;13.84;33.16;95632.25;5001418;28;20211;-83
2022/04/18 11:39:44;;;;;;;3.80;3.33;;;;;;;14.06;33.68;95627.31;4999588;28;20179;-83
2022/04/18 11:42:14;;;;;;;4.53;3.63;;;;;;;14.37;33.37;95632.59;4999134;28;20235;-83
2022/04/18 11:44:40;;;;;;;4.63;3.27;;;;;;;14.14;34.13;95632.53;4997844;28;20184;-83
2022/04/18 11:47:10;;;;;;;3.23;2.93;;;;;;;14.13;33.21;95620.44;4997185;28;20259;-83
2022/04/18 11:49:37;;;;;;;5.33;3.37;;;;;;;14.40;34.35;95627.88;5001046;28;20238;-83
2022/04/18 11:52:03;;;;;;;4.43;3.57;;;;;;;14.28;33.14;95629.22;4998300;28;20255;-83
2022/04/18 11:54:29;;;;;;;5.00;4.30;;;;;;;14.10;33.65;95618.97;4997544;28;20210;-82
2022/04/18 11:57:01;;;;;;;5.13;3.70;;;;;;;14.46;33.41;95613.34;4997042;28;20242;-83
2022/04/18 11:59:28;;;;;;;4.60;3.17;;;;;;;14.64;33.80;95616.53;4997085;28;20278;-83
2022/04/18 12:07:38;;;;;;;4.50;3.43;;;;;;;14.68;32.81;95590.88;4996702;28;20575;-83
2022/04/18 12:10:26;;;;;;;5.03;3.37;;;;;;;14.33;33.17;95597.38;4996749;28;20175;-83
2022/04/18 12:12:52;;;;;;;3.73;3.07;;;;;;;14.41;32.99;95594.72;4995957;28;20191;-82
2022/04/18 12:15:25;;;;;;;4.27;3.40;;;;;;;14.99;32.22;95585.59;4995144;28;20248;-83
2022/04/18 12:17:52;;;;;;;3.07;2.77;;;;;;;15.30;33.15;95590.78;4996413;28;20342;-82
2022/04/18 12:20:28;;;;;;;3.60;3.30;;;;;;;15.23;32.50;95587.25;4995952;28;20211;-83
2022/04/18 12:22:59;;;;;;;3.93;2.73;;;;;;;15.37;32.32;95586.50;4995428;28;20187;-83
2022/04/18 12:25:29;;;;;;;12.90;9.00;;;;;;;15.54;32.72;95587.13;4996293;28;20243;-83
2022/04/18 12:27:55;;;;;;;5.10;3.90;;;;;;;15.53;32.25;95573.25;4995434;28;20200;-82
2022/04/18 12:30:21;;;;;;;5.10;4.00;;;;;;;15.93;31.78;95576.50;4995674;28;20176;-82
2022/04/18 12:32:49;;;;;;;16.57;10.23;;;;;;;15.08;31.71;95579.34;4994859;28;20211;-82
2022/04/18 12:35:20;;;;;;;4.47;3.33;;;;;;;15.15;31.02;95571.59;4995720;28;20172;-82
2022/04/18 12:37:46;;;;;;;8.43;6.50;;;;;;;15.30;32.02;95565.44;4979556;28;20735;-83
2022/04/18 12:40:13;;;;;;;3.97;3.57;;;;;;;15.40;32.10;95570.44;4995552;28;20573;-83
2022/04/18 12:42:39;;;;;;;7.07;4.37;;;;;;;15.06;31.63;95565.63;4996199;28;20210;-82
2022/04/18 12:45:04;;;;;;;5.80;4.20;;;;;;;15.42;32.37;95571.06;4997537;28;20180;-82
2022/04/18 12:47:32;;;;;;;4.30;3.03;;;;;;;15.56;31.89;95559.81;4996500;28;20207;-82
2022/04/18 12:50:11;;;;;;;4.90;2.97;;;;;;;15.68;32.54;95562.84;4997926;28;20172;-81
2022/04/18 12:52:51;;;;;;;3.80;2.80;;;;;;;16.03;30.72;95555.28;4994395;28;20188;-82
2022/04/18 12:55:25;;;;;;;4.07;3.13;;;;;;;15.80;30.99;95561.41;4995134;28;20299;-82
2022/04/18 12:57:50;;;;;;;5.93;3.63;;;;;;;15.77;31.10;95555.72;5012735;28;20295;-82
2022/04/18 13:00:16;;;;;;;4.60;3.87;;;;;;;15.50;31.76;95550.06;4994418;28;20622;-82
2022/04/18 13:03:01;;;;;;;3.87;3.30;;;;;;;15.80;30.80;95548.31;4994299;28;20250;-82
2022/04/18 13:05:28;;;;;;;4.00;3.13;;;;;;;15.83;30.68;95547.16;4994507;28;20222;-82
2022/04/18 13:08:08;;;;;;;5.30;3.17;;;;;;;16.09;30.82;95546.72;4994342;28;20234;-83
2022/04/18 13:10:36;;;;;;;4.13;3.27;;;;;;;15.81;31.26;95538.66;4994778;28;20207;-83
2022/04/18 13:13:03;;;;;;;4.37;3.60;;;;;;;16.28;30.36;95546.16;4993828;28;20176;-83
2022/04/18 13:15:29;;;;;;;3.43;3.10;;;;;;;16.24;30.57;95541.44;4993247;28;20243;-83
2022/04/18 13:17:57;;;;;;;3.13;2.27;;;;;;;16.45;31.94;95536.28;4993897;28;20578;-82
2022/04/18 13:20:22;;;;;;;4.60;2.63;;;;;;;16.43;29.80;95536.47;4994444;28;20669;-82
2022/04/18 13:22:47;;;;;;;5.30;3.50;;;;;;;16.69;29.83;95540.38;4994180;28;20259;-82
2022/04/18 13:25:13;;;;;;;3.55;2.47;;;;;;;16.39;29.24;95529.94;4994872;28;20188;-82